createdAt,value
2023-02-06T00:00:29.019Z,-2.01
2023-02-06T00:03:20.391Z,-0.89
2023-02-06T00:05:59.422Z,0.99
2023-02-06T00:08:30.259Z,1.92
2023-02-06T00:10:58.588Z,1.87
2023-02-06T00:13:32.239Z,1.05
2023-02-06T00:16:03.956Z,0.05
2023-02-06T00:19:13.430Z,-0.65
2023-02-06T00:21:44.163Z,-1.27
2023-02-06T00:24:12.539Z,-1.63
2023-02-06T00:26:43.169Z,-1.93
2023-02-06T00:29:20.462Z,-2.19
2023-02-06T00:31:51.705Z,-2.40
2023-02-06T00:34:23.642Z,-2.55
2023-02-06T00:36:57.579Z,-2.71
2023-02-06T00:39:27.594Z,-2.82
2023-02-06T00:42:22.317Z,-2.94
2023-02-06T00:44:50.611Z,-3.06
2023-02-06T00:47:28.871Z,-3.15
2023-02-06T00:49:59.488Z,-3.23
2023-02-06T00:52:31.122Z,-3.30
2023-02-06T00:55:15.508Z,-2.92
2023-02-06T00:57:43.627Z,-1.49
2023-02-06T01:00:12.966Z,-0.37
2023-02-06T01:02:51.756Z,0.54
2023-02-06T01:05:20.381Z,1.78
2023-02-06T01:07:49.373Z,2.56
2023-02-06T01:10:22.871Z,2.04
2023-02-06T01:12:55.119Z,0.88
2023-02-06T01:15:29.973Z,-0.08
2023-02-06T01:18:07.063Z,-0.71
2023-02-06T01:20:35.423Z,-1.20
2023-02-06T01:23:11.788Z,-1.58
2023-02-06T01:26:23.341Z,-1.90
2023-02-06T01:28:45.099Z,-2.22
2023-02-06T01:31:19.060Z,-2.45
2023-02-06T01:33:48.108Z,-2.64
2023-02-06T01:36:19.454Z,-2.79
2023-02-06T01:38:48.440Z,-2.01
2023-02-06T01:41:46.626Z,-0.30
2023-02-06T01:44:22.562Z,1.05
2023-02-06T01:46:56.079Z,1.82
2023-02-06T01:49:51.273Z,2.38
2023-02-06T01:52:24.459Z,1.54
2023-02-06T01:55:04.584Z,0.42
2023-02-06T01:57:48.782Z,-0.50
2023-02-06T02:00:28.990Z,-1.07
2023-02-06T02:02:57.812Z,-1.52
2023-02-06T02:05:38.852Z,-1.85
2023-02-06T02:08:32.682Z,-2.14
2023-02-06T02:11:01.954Z,-2.42
2023-02-06T02:13:38.828Z,-2.57
2023-02-06T02:16:47.416Z,-1.63
2023-02-06T02:19:49.634Z,-0.35
2023-02-06T02:22:51.982Z,0.93
2023-02-06T02:26:07.075Z,2.37
2023-02-06T02:29:59.550Z,1.89
2023-02-06T02:33:18.282Z,0.19
2023-02-06T02:37:17.527Z,-0.77
2023-02-06T02:40:39.934Z,-1.53
2023-02-06T02:44:12.796Z,-2.00
2023-02-06T02:46:44.923Z,-2.36
2023-02-06T02:49:27.185Z,-2.56
2023-02-06T02:51:58.129Z,-1.72
2023-02-06T02:54:39.509Z,-0.09
2023-02-06T02:57:42.907Z,0.74
2023-02-06T03:00:14.831Z,1.20
2023-02-06T03:02:43.445Z,0.73
2023-02-06T03:06:16.030Z,-0.29
2023-02-06T03:09:15.949Z,-1.19
2023-02-06T03:13:06.897Z,-1.76
2023-02-06T03:16:33.444Z,-1.52
2023-02-06T03:19:26.938Z,0.03
2023-02-06T03:22:03.084Z,0.71
2023-02-06T03:24:38.594Z,0.49
2023-02-06T03:27:24.373Z,-0.50
2023-02-06T03:29:55.809Z,-1.27
2023-02-06T03:32:35.073Z,-1.72
2023-02-06T03:35:13.895Z,-2.10
2023-02-06T03:37:42.337Z,-2.37
2023-02-06T03:40:11.741Z,-2.57
2023-02-06T03:43:13.194Z,-2.73
2023-02-06T03:45:41.647Z,-2.93
2023-02-06T03:48:53.888Z,-3.04
2023-02-06T03:52:03.198Z,-1.98
2023-02-06T03:54:36.512Z,-0.54
2023-02-06T03:57:15.554Z,0.21
2023-02-06T03:59:55.671Z,0.75
2023-02-06T04:02:26.812Z,1.16
2023-02-06T04:04:55.309Z,0.62
2023-02-06T04:07:29.227Z,-0.20
2023-02-06T04:10:06.678Z,-0.88
2023-02-06T04:12:38.370Z,-1.43
2023-02-06T04:15:09.854Z,-1.83
2023-02-06T04:18:01.100Z,-2.17
2023-02-06T04:20:33.489Z,-1.59
2023-02-06T04:23:05.157Z,-0.43
2023-02-06T04:25:46.598Z,0.39
2023-02-06T04:28:36.528Z,1.02
2023-02-06T04:31:28.092Z,0.91
2023-02-06T04:33:56.524Z,-0.05
2023-02-06T04:36:27.572Z,-0.76
2023-02-06T04:38:58.514Z,-1.26
2023-02-06T04:41:27.186Z,-1.67
2023-02-06T04:43:55.502Z,-1.99
2023-02-06T04:46:28.229Z,-2.24
2023-02-06T04:48:59.078Z,-2.46
2023-02-06T04:51:30.641Z,-2.66
2023-02-06T04:54:03.480Z,-2.33
2023-02-06T04:56:37.119Z,-0.82
2023-02-06T04:59:14.315Z,0.50
2023-02-06T05:01:42.670Z,1.12
2023-02-06T05:04:18.731Z,1.31
2023-02-06T05:06:51.922Z,0.63
2023-02-06T05:09:43.561Z,-0.39
2023-02-06T05:12:21.852Z,-1.26
2023-02-06T05:14:56.273Z,-1.77
2023-02-06T05:17:27.066Z,-2.18
2023-02-06T05:19:58.606Z,-2.47
2023-02-06T05:22:30.548Z,-1.86
2023-02-06T05:24:59.817Z,-0.30
2023-02-06T05:27:28.392Z,0.62
2023-02-06T05:30:07.387Z,0.98
2023-02-06T05:32:38.494Z,0.82
2023-02-06T05:35:10.321Z,-0.21
2023-02-06T05:37:56.524Z,-1.08
2023-02-06T05:40:27.469Z,-1.72
2023-02-06T05:42:59.353Z,-2.11
2023-02-06T05:45:27.792Z,-1.62
2023-02-06T05:48:05.697Z,-0.58
2023-02-06T05:50:34.281Z,0.58
2023-02-06T05:53:10.746Z,1.89
2023-02-06T05:55:50.800Z,2.11
2023-02-06T05:58:28.110Z,0.78
2023-02-06T06:01:19.030Z,-0.29
2023-02-06T06:03:47.672Z,-1.14
2023-02-06T06:06:18.817Z,-1.71
2023-02-06T06:08:47.194Z,-2.13
2023-02-06T06:11:28.280Z,-2.43
2023-02-06T06:14:17.028Z,-2.20
2023-02-06T06:16:48.476Z,-0.70
2023-02-06T06:19:17.073Z,0.36
2023-02-06T06:21:48.214Z,0.86
2023-02-06T06:24:16.659Z,0.72
2023-02-06T06:26:45.265Z,-0.16
2023-02-06T06:29:19.891Z,-0.99
2023-02-06T06:32:19.098Z,-1.63
2023-02-06T06:34:47.780Z,-2.06
2023-02-06T06:37:56.690Z,-2.37
2023-02-06T06:40:36.755Z,-2.66
2023-02-06T06:43:08.199Z,-2.51
2023-02-06T06:46:26.306Z,-1.30
2023-02-06T06:49:01.563Z,0.54
2023-02-06T06:51:37.745Z,2.83
2023-02-06T06:54:06.464Z,3.16
2023-02-06T06:57:32.770Z,1.89
2023-02-06T07:00:01.070Z,0.42
2023-02-06T07:02:32.283Z,-0.23
2023-02-06T07:05:01.189Z,-0.73
2023-02-06T07:07:39.059Z,-1.13
2023-02-06T07:10:36.470Z,-1.47
2023-02-06T07:13:11.154Z,-1.77
2023-02-06T07:16:01.276Z,-1.96
2023-02-06T07:18:31.984Z,-2.11
2023-02-06T07:21:22.240Z,-0.69
2023-02-06T07:24:10.620Z,2.44
2023-02-06T07:26:41.663Z,2.81
2023-02-06T07:29:10.142Z,1.64
2023-02-06T07:32:15.274Z,0.62
2023-02-06T07:34:46.258Z,-0.24
2023-02-06T07:37:14.685Z,-0.74
2023-02-06T07:40:05.625Z,-1.10
2023-02-06T07:42:37.012Z,-1.37
2023-02-06T07:45:37.592Z,-1.61
2023-02-06T07:48:18.869Z,-1.76
2023-02-06T07:50:47.068Z,-1.83
2023-02-06T07:53:17.903Z,-0.54
2023-02-06T07:55:49.417Z,0.92
2023-02-06T07:58:20.322Z,1.55
2023-02-06T08:01:53.617Z,1.03
2023-02-06T08:04:35.657Z,0.02
2023-02-06T08:07:24.581Z,-0.45
2023-02-06T08:09:53.289Z,-0.74
2023-02-06T08:12:24.330Z,-0.92
2023-02-06T08:14:52.604Z,-1.10
2023-02-06T08:17:21.443Z,-1.28
2023-02-06T08:20:11.068Z,-1.43
2023-02-06T08:22:39.573Z,-1.25
2023-02-06T08:25:08.258Z,0.23
2023-02-06T08:27:45.682Z,1.66
2023-02-06T08:30:14.527Z,1.90
2023-02-06T08:32:42.774Z,1.19
2023-02-06T08:35:11.057Z,0.58
2023-02-06T08:37:40.874Z,0.13
2023-02-06T08:40:15.223Z,-0.27
2023-02-06T08:42:43.591Z,-0.64
2023-02-06T08:45:11.791Z,-0.84
2023-02-06T08:47:40.321Z,-0.94
2023-02-06T08:50:09.067Z,-0.95
2023-02-06T08:52:40.378Z,-0.97
2023-02-06T08:55:10.915Z,-1.01
2023-02-06T08:57:39.259Z,-0.94
2023-02-06T09:00:09.022Z,-0.87
2023-02-06T09:02:42.817Z,-0.82
2023-02-06T09:05:15.661Z,-0.88
2023-02-06T09:07:46.230Z,-0.92
2023-02-06T09:10:26.822Z,-0.85
2023-02-06T09:13:16.304Z,-0.82
2023-02-06T09:16:01.270Z,-0.82
2023-02-06T09:18:29.535Z,-0.82
2023-02-06T09:21:12.550Z,-0.83
2023-02-06T09:23:49.402Z,-0.94
2023-02-06T09:26:28.855Z,-0.98
2023-02-06T09:29:00.772Z,-1.04
2023-02-06T09:31:32.579Z,-0.99
2023-02-06T09:34:00.698Z,-0.80
2023-02-06T09:36:30.364Z,-0.70
2023-02-06T09:39:01.136Z,-0.71
2023-02-06T09:41:42.822Z,-0.64
2023-02-06T09:44:14.415Z,-0.61
2023-02-06T09:47:34.836Z,-0.55
2023-02-06T09:50:40.835Z,-0.68
2023-02-06T09:53:46.489Z,-0.72
2023-02-06T09:56:54.133Z,-0.79
2023-02-06T09:59:56.382Z,-0.55
2023-02-06T10:02:46.083Z,-0.51
2023-02-06T10:05:34.364Z,-0.41
2023-02-06T10:08:32.349Z,-0.25
2023-02-06T10:11:08.886Z,-0.14
2023-02-06T10:13:51.028Z,-0.01
2023-02-06T10:16:34.183Z,0.07
2023-02-06T10:19:23.388Z,0.14
2023-02-06T10:22:53.772Z,0.11
2023-02-06T10:25:51.789Z,-0.06
2023-02-06T10:28:30.163Z,-0.18
2023-02-06T10:31:35.653Z,-0.20
2023-02-06T10:35:39.025Z,-0.19
2023-02-06T10:38:19.136Z,-0.42
2023-02-06T10:41:22.209Z,-0.39
2023-02-06T10:44:31.236Z,-0.50
2023-02-06T10:47:02.544Z,-0.50
2023-02-06T10:49:57.123Z,-0.49
2023-02-06T10:52:43.069Z,-0.30
2023-02-06T10:55:36.534Z,-0.05
2023-02-06T10:58:21.996Z,0.05
2023-02-06T11:00:50.715Z,-0.06
2023-02-06T11:03:33.206Z,-0.21
2023-02-06T11:06:02.504Z,-0.37
2023-02-06T11:08:49.938Z,-0.16
2023-02-06T11:12:40.196Z,0.27
2023-02-06T11:16:00.357Z,0.32
2023-02-06T11:18:59.049Z,0.15
2023-02-06T11:22:17.288Z,-0.01
2023-02-06T11:25:38.591Z,-0.08
2023-02-06T11:28:18.668Z,-0.00
2023-02-06T11:31:16.524Z,0.28
2023-02-06T11:34:40.675Z,0.40
2023-02-06T11:37:40.481Z,0.47
2023-02-06T11:40:35.652Z,0.52
2023-02-06T11:43:15.296Z,0.56
2023-02-06T11:45:44.354Z,0.70
2023-02-06T11:48:45.393Z,0.83
2023-02-06T11:51:14.099Z,0.84
2023-02-06T11:54:02.798Z,0.67
2023-02-06T11:56:31.883Z,0.39
2023-02-06T11:59:15.066Z,0.18
2023-02-06T12:01:47.736Z,0.05
2023-02-06T12:04:26.537Z,-0.11
2023-02-06T12:07:03.154Z,-0.28
2023-02-06T12:09:34.264Z,-0.28
2023-02-06T12:12:38.913Z,-0.19
2023-02-06T12:15:39.844Z,-0.08
2023-02-06T12:18:36.945Z,0.06
2023-02-06T12:21:14.201Z,0.30
2023-02-06T12:24:01.771Z,0.42
2023-02-06T12:26:32.008Z,0.38
2023-02-06T12:29:24.862Z,0.38
2023-02-06T12:32:08.337Z,0.48
2023-02-06T12:34:54.476Z,0.65
2023-02-06T12:37:41.503Z,0.84
2023-02-06T12:40:23.766Z,0.96
2023-02-06T12:43:03.126Z,0.98
2023-02-06T12:45:42.451Z,0.96
2023-02-06T12:48:42.054Z,0.89
2023-02-06T12:51:36.544Z,0.75
2023-02-06T12:54:15.778Z,0.59
2023-02-06T12:56:52.111Z,0.40
2023-02-06T12:59:57.821Z,0.22
2023-02-06T13:02:45.921Z,0.06
2023-02-06T13:05:30.031Z,-0.01
2023-02-06T13:08:12.938Z,-0.16
2023-02-06T13:10:41.282Z,-0.24
2023-02-06T13:13:30.712Z,-0.28
2023-02-06T13:16:00.650Z,-0.30
2023-02-06T13:18:55.359Z,-0.38
2023-02-06T13:21:29.101Z,-0.41
2023-02-06T13:24:03.441Z,-0.42
2023-02-06T13:27:12.069Z,-0.50
2023-02-06T13:29:51.694Z,-0.59
2023-02-06T13:32:20.031Z,-0.61
2023-02-06T13:35:01.619Z,-0.62
2023-02-06T13:37:47.855Z,-0.62
2023-02-06T13:40:30.507Z,-0.63
2023-02-06T13:43:02.193Z,-0.66
2023-02-06T13:46:22.395Z,-0.74
2023-02-06T13:49:28.421Z,-0.86
2023-02-06T13:52:39.505Z,-0.95
2023-02-06T13:55:56.224Z,-1.01
2023-02-06T13:58:41.235Z,-1.08
2023-02-06T14:01:26.272Z,-1.16
2023-02-06T14:03:54.826Z,-1.23
2023-02-06T14:06:45.116Z,-1.27
2023-02-06T14:09:58.652Z,-1.34
2023-02-06T14:13:05.609Z,-1.35
2023-02-06T14:15:58.905Z,-1.43
2023-02-06T14:18:46.736Z,-1.48
2023-02-06T14:21:37.564Z,-1.55
2023-02-06T14:24:28.039Z,-1.62
2023-02-06T14:27:14.835Z,-1.74
2023-02-06T14:30:42.527Z,-1.83
2023-02-06T14:34:23.001Z,-1.93
2023-02-06T14:37:11.842Z,-2.05
2023-02-06T14:39:53.357Z,-2.13
2023-02-06T14:43:03.993Z,-2.20
2023-02-06T14:45:42.460Z,-2.29
2023-02-06T14:48:25.623Z,-2.36
2023-02-06T14:50:57.143Z,-1.94
2023-02-06T14:53:36.022Z,-0.12
2023-02-06T14:56:17.211Z,1.86
2023-02-06T14:58:51.607Z,3.00
2023-02-06T15:01:27.841Z,3.57
2023-02-06T15:04:16.404Z,2.51
2023-02-06T15:07:03.429Z,1.14
2023-02-06T15:09:33.897Z,0.23
2023-02-06T15:12:19.118Z,-0.40
2023-02-06T15:15:02.586Z,-0.89
2023-02-06T15:17:34.554Z,-1.27
2023-02-06T15:20:41.724Z,-1.59
2023-02-06T15:23:35.808Z,-1.98
2023-02-06T15:26:32.819Z,-2.32
2023-02-06T15:29:02.293Z,-2.63
2023-02-06T15:31:33.056Z,-2.90
2023-02-06T15:34:04.030Z,-3.14
2023-02-06T15:36:35.212Z,-3.34
2023-02-06T15:39:06.828Z,-3.52
2023-02-06T15:41:35.400Z,-3.66
2023-02-06T15:44:09.921Z,-3.80
2023-02-06T15:46:51.050Z,-3.93
2023-02-06T15:49:43.246Z,-4.06
2023-02-06T15:52:12.940Z,-4.17
2023-02-06T15:54:42.757Z,-4.27
2023-02-06T15:57:34.459Z,-4.36
2023-02-06T16:00:09.131Z,-4.47
2023-02-06T16:02:40.331Z,-4.57
2023-02-06T16:05:28.774Z,-4.62
2023-02-06T16:07:57.100Z,-3.18
2023-02-06T16:10:37.997Z,-1.15
2023-02-06T16:13:19.855Z,0.41
2023-02-06T16:16:16.597Z,1.45
2023-02-06T16:18:46.695Z,2.21
2023-02-06T16:21:28.596Z,2.68
2023-02-06T16:24:14.688Z,3.13
2023-02-06T16:26:48.312Z,3.72
2023-02-06T16:29:25.979Z,4.17
2023-02-06T16:32:03.580Z,4.55
2023-02-06T16:34:37.064Z,4.85
2023-02-06T16:37:29.255Z,5.18
2023-02-06T16:39:57.386Z,4.01
2023-02-06T16:42:33.486Z,2.42
2023-02-06T16:45:26.632Z,1.06
2023-02-06T16:48:11.642Z,-0.08
2023-02-06T16:50:43.493Z,-0.93
2023-02-06T16:53:38.712Z,-1.57
2023-02-06T16:56:13.275Z,-2.19
2023-02-06T16:58:42.022Z,-2.68
2023-02-06T17:01:26.650Z,-3.10
2023-02-06T17:03:55.455Z,-3.51
2023-02-06T17:06:29.688Z,-3.87
2023-02-06T17:09:03.381Z,-4.23
2023-02-06T17:11:31.955Z,-4.55
2023-02-06T17:14:00.365Z,-4.24
2023-02-06T17:16:29.140Z,-2.49
2023-02-06T17:18:57.576Z,-0.94
2023-02-06T17:21:33.013Z,0.12
2023-02-06T17:24:12.071Z,0.86
2023-02-06T17:26:41.028Z,1.37
2023-02-06T17:29:12.687Z,1.76
2023-02-06T17:31:44.123Z,2.10
2023-02-06T17:34:14.799Z,2.40
2023-02-06T17:36:48.195Z,2.63
2023-02-06T17:39:19.035Z,2.77
2023-02-06T17:41:53.193Z,2.86
2023-02-06T17:44:23.956Z,3.36
2023-02-06T17:46:55.838Z,3.90
2023-02-06T17:49:24.830Z,4.03
2023-02-06T17:51:56.714Z,3.88
2023-02-06T17:54:25.373Z,3.69
2023-02-06T17:56:56.107Z,3.45
2023-02-06T17:59:24.893Z,3.28
2023-02-06T18:01:56.072Z,3.20
2023-02-06T18:04:36.095Z,3.13
2023-02-06T18:07:04.422Z,3.10
2023-02-06T18:09:36.138Z,2.99
2023-02-06T18:12:07.539Z,2.85
2023-02-06T18:14:36.015Z,2.70
2023-02-06T18:17:14.157Z,2.59
2023-02-06T18:19:47.141Z,2.42
2023-02-06T18:22:25.554Z,2.27
2023-02-06T18:24:59.768Z,2.13
2023-02-06T18:27:32.934Z,2.07
2023-02-06T18:30:04.440Z,2.01
2023-02-06T18:32:38.142Z,1.95
2023-02-06T18:35:08.515Z,1.88
2023-02-06T18:37:36.750Z,1.77
2023-02-06T18:40:07.597Z,1.69
2023-02-06T18:42:51.122Z,1.58
2023-02-06T18:45:36.180Z,1.47
2023-02-06T18:48:07.033Z,1.32
2023-02-06T18:50:36.403Z,1.29
2023-02-06T18:53:04.954Z,1.28
2023-02-06T18:55:56.786Z,1.25
2023-02-06T18:58:31.307Z,1.24
2023-02-06T19:01:13.319Z,1.25
2023-02-06T19:03:45.479Z,1.26
2023-02-06T19:06:34.042Z,1.21
2023-02-06T19:09:07.354Z,1.09
2023-02-06T19:11:38.738Z,1.05
2023-02-06T19:14:17.288Z,1.05
2023-02-06T19:17:16.535Z,1.02
2023-02-06T19:19:47.439Z,0.97
2023-02-06T19:22:37.085Z,0.93
2023-02-06T19:25:14.735Z,0.95
2023-02-06T19:27:55.407Z,0.89
2023-02-06T19:30:26.529Z,0.75
2023-02-06T19:33:00.299Z,0.60
2023-02-06T19:35:34.105Z,0.47
2023-02-06T19:38:22.638Z,0.26
2023-02-06T19:40:53.705Z,0.12
2023-02-06T19:43:22.580Z,0.05
2023-02-06T19:45:56.922Z,0.02
2023-02-06T19:49:09.211Z,-0.04
2023-02-06T19:51:41.380Z,-0.10
2023-02-06T19:54:10.463Z,-0.16
2023-02-06T19:56:42.689Z,-0.20
2023-02-06T19:59:19.076Z,-0.27
2023-02-06T20:01:51.163Z,-0.31
2023-02-06T20:04:30.199Z,-0.29
2023-02-06T20:07:12.815Z,-0.25
2023-02-06T20:09:44.369Z,-0.30
2023-02-06T20:12:47.140Z,-0.34
2023-02-06T20:15:18.380Z,-0.38
2023-02-06T20:17:46.844Z,-0.38
2023-02-06T20:20:17.684Z,-0.43
2023-02-06T20:22:46.796Z,-0.49
2023-02-06T20:25:27.795Z,-0.46
2023-02-06T20:27:58.370Z,-0.49
2023-02-06T20:30:44.805Z,-0.53
2023-02-06T20:33:22.595Z,-0.54
2023-02-06T20:36:17.747Z,-0.55
2023-02-06T20:39:10.857Z,-0.63
2023-02-06T20:41:46.912Z,-0.67
2023-02-06T20:44:18.260Z,-0.76
2023-02-06T20:46:54.544Z,-0.83
2023-02-06T20:49:32.242Z,-0.85
2023-02-06T20:52:03.548Z,-0.88
2023-02-06T20:54:37.275Z,-0.88
2023-02-06T20:57:06.257Z,-0.88
2023-02-06T21:00:06.997Z,-0.89
2023-02-06T21:02:37.817Z,-0.91
2023-02-06T21:05:07.568Z,-0.93
2023-02-06T21:07:39.156Z,-0.94
2023-02-06T21:10:15.500Z,-0.97
2023-02-06T21:12:50.018Z,-0.98
2023-02-06T21:15:30.255Z,-0.95
2023-02-06T21:18:06.188Z,-0.93
2023-02-06T21:20:37.978Z,-0.99
2023-02-06T21:23:06.570Z,-0.97
2023-02-06T21:25:38.181Z,-0.96
2023-02-06T21:28:06.912Z,-0.91
2023-02-06T21:30:41.622Z,-0.89
2023-02-06T21:33:42.598Z,-0.88
2023-02-06T21:36:16.150Z,-0.82
2023-02-06T21:38:47.492Z,-0.89
2023-02-06T21:41:36.707Z,-0.92
2023-02-06T21:44:07.790Z,-0.87
2023-02-06T21:46:39.134Z,-0.87
2023-02-06T21:49:09.399Z,-0.86
2023-02-06T21:51:41.422Z,-0.79
2023-02-06T21:54:18.910Z,-0.71
2023-02-06T21:56:49.860Z,-0.71
2023-02-06T21:59:32.776Z,-0.66
2023-02-06T22:02:05.342Z,-0.68
2023-02-06T22:04:37.813Z,-0.65
2023-02-06T22:07:13.412Z,-0.64
2023-02-06T22:09:42.367Z,-0.64
2023-02-06T22:12:11.143Z,-0.61
2023-02-06T22:14:42.980Z,-0.65
2023-02-06T22:17:19.134Z,-0.68
2023-02-06T22:19:50.266Z,-0.69
2023-02-06T22:22:23.408Z,-0.68
2023-02-06T22:24:51.899Z,-0.67
2023-02-06T22:27:33.271Z,-0.67
2023-02-06T22:30:14.927Z,-0.69
2023-02-06T22:33:06.256Z,-0.76
2023-02-06T22:35:44.891Z,-0.77
2023-02-06T22:38:28.095Z,-0.77
2023-02-06T22:41:11.432Z,-0.87
2023-02-06T22:43:44.106Z,-0.91
2023-02-06T22:47:07.368Z,-0.90
2023-02-06T22:49:59.305Z,-0.93
2023-02-06T22:53:00.293Z,-0.96
2023-02-06T22:55:52.163Z,-0.95
2023-02-06T22:58:23.816Z,-0.97
2023-02-06T23:01:21.341Z,-1.00
2023-02-06T23:04:01.618Z,-1.06
2023-02-06T23:06:34.040Z,-1.10
2023-02-06T23:09:07.312Z,-1.12
2023-02-06T23:11:58.475Z,-1.09
2023-02-06T23:14:49.605Z,-1.07
2023-02-06T23:17:23.330Z,-1.07
2023-02-06T23:20:00.617Z,-1.12
2023-02-06T23:23:06.843Z,-1.15
2023-02-06T23:25:52.328Z,-1.20
2023-02-06T23:28:46.849Z,-1.26
2023-02-06T23:31:21.661Z,-1.29
2023-02-06T23:34:13.322Z,-1.31
2023-02-06T23:37:00.783Z,-1.35
2023-02-06T23:39:45.074Z,-1.43
2023-02-06T23:42:15.931Z,-1.45
2023-02-06T23:45:13.584Z,-1.50
2023-02-06T23:47:52.384Z,-1.53
2023-02-06T23:50:21.490Z,-1.53
2023-02-06T23:52:53.098Z,-1.51
2023-02-06T23:55:41.713Z,-1.44
2023-02-06T23:58:10.375Z,-1.43
